KOWD

Norwood Memorial Airport

Norwood, Massachusetts, USA
METAR KOWD 100653Z AUTO 00000KT 10SM CLR M06/M08 A3010 RMK AO2 SLP192 T10611083
Observed Flight Rules
Dec-10 @ 06:53 UTC (33 minutes ago) Visual Flight Rules
Visibility Clouds
10 miles
  • Clear skies
Temperatures Readings
Current -6°C / 21°F
Dewpoint -8°C / 18°F
Humidity 86%
Altimeter 30.1" Hg
Pressure 1019.2 hPa
Elevation 19
METAR KOWD 100653Z AUTO 00000KT 10SM CLR M06/M08 A3010 RMK AO2 SLP192 T10611083
Observed Flight Rules
Dec-10 @ 06:53 UTC
(33 minutes ago)
VFR
Clouds
  • Clear skies
Temperature Dewpoint
-6°C / 21°F -8°C / 18°F
Humidity Altimeter Pressure
86% 30.1" Hg 1019.2 hPa